createdAt,value
2019-05-18T00:01:33.012Z,119.57
2019-05-18T00:04:01.576Z,125.13
2019-05-18T00:06:30.123Z,115.13
2019-05-18T00:08:58.774Z,126.83
2019-05-18T00:11:27.555Z,127.57
2019-05-18T00:13:56.244Z,119.67
2019-05-18T00:16:24.950Z,120.97
2019-05-18T00:18:53.718Z,118.70
2019-05-18T00:21:22.403Z,130.67
2019-05-18T00:23:51.139Z,121.10
2019-05-18T00:26:20.928Z,118.70
2019-05-18T00:28:49.627Z,127.57
2019-05-18T00:31:18.353Z,129.20
2019-05-18T00:33:46.963Z,120.13
2019-05-18T00:36:15.591Z,116.70
2019-05-18T00:38:44.218Z,114.77
2019-05-18T00:41:12.943Z,126.20
2019-05-18T00:43:41.652Z,131.63
2019-05-18T00:46:10.347Z,125.70
2019-05-18T00:48:39.031Z,115.50
2019-05-18T00:51:07.734Z,122.73
2019-05-18T00:53:37.255Z,119.23
2019-05-18T00:56:06.070Z,124.90
2019-05-18T00:58:34.715Z,128.03
2019-05-18T01:01:03.444Z,133.50
2019-05-18T01:03:32.143Z,125.27
2019-05-18T01:06:00.772Z,122.70
2019-05-18T01:08:29.351Z,116.67
2019-05-18T01:10:58.047Z,130.33
2019-05-18T01:13:26.885Z,121.47
2019-05-18T01:15:55.602Z,121.73
2019-05-18T01:18:24.229Z,114.40
2019-05-18T01:20:52.926Z,114.43
2019-05-18T01:23:21.591Z,115.10
2019-05-18T01:25:50.287Z,117.47
2019-05-18T01:28:19.719Z,116.90
2019-05-18T01:30:48.477Z,114.20
2019-05-18T01:33:17.176Z,120.17
2019-05-18T01:35:45.877Z,113.67
2019-05-18T01:38:14.462Z,107.70
2019-05-18T01:40:43.090Z,118.80
2019-05-18T01:43:11.725Z,121.80
2019-05-18T01:45:40.315Z,122.80
2019-05-18T01:48:13.769Z,133.10
2019-05-18T01:50:39.158Z,122.20
2019-05-18T01:53:07.819Z,120.43
2019-05-18T01:55:36.386Z,123.43
2019-05-18T01:58:05.081Z,112.23
2019-05-18T02:00:33.828Z,112.67
2019-05-18T02:03:02.461Z,115.63
2019-05-18T02:05:31.091Z,116.57
2019-05-18T02:07:59.748Z,121.03
2019-05-18T02:10:30.722Z,121.90
2019-05-18T02:13:01.735Z,113.20
2019-05-18T02:15:30.440Z,132.37
2019-05-18T02:17:58.997Z,131.97
2019-05-18T02:20:27.634Z,138.83
2019-05-18T02:22:56.290Z,140.97
2019-05-18T02:25:24.851Z,130.27
2019-05-18T02:27:53.408Z,125.17
2019-05-18T02:30:22.155Z,137.80
2019-05-18T02:32:50.795Z,136.70
2019-05-18T02:35:19.494Z,136.43
2019-05-18T02:37:48.094Z,127.60
2019-05-18T02:40:16.891Z,121.83
2019-05-18T02:42:45.525Z,119.37
2019-05-18T02:45:14.359Z,133.10
2019-05-18T02:47:44.503Z,139.33
2019-05-18T02:50:13.213Z,136.43
2019-05-18T02:52:41.788Z,119.07
2019-05-18T02:55:12.251Z,113.67
2019-05-18T02:57:40.965Z,120.80
2019-05-18T03:00:10.189Z,116.30
2019-05-18T03:02:38.841Z,119.90
2019-05-18T03:05:07.738Z,119.13
2019-05-18T03:07:36.461Z,113.20
2019-05-18T03:10:06.447Z,138.30
2019-05-18T03:12:35.159Z,141.40
2019-05-18T03:15:04.532Z,139.93
2019-05-18T03:17:33.312Z,129.53
2019-05-18T03:20:01.963Z,137.87
2019-05-18T03:22:30.663Z,143.60
2019-05-18T03:24:59.794Z,141.43
2019-05-18T03:27:28.414Z,157.07
2019-05-18T03:29:56.980Z,146.73
2019-05-18T03:32:26.680Z,148.80
2019-05-18T03:34:55.296Z,153.53
2019-05-18T03:37:25.195Z,157.70
2019-05-18T03:39:55.311Z,142.57
2019-05-18T03:42:24.015Z,143.50
2019-05-18T03:44:52.715Z,131.23
2019-05-18T03:47:21.386Z,137.37
2019-05-18T03:49:50.022Z,126.33
2019-05-18T03:52:18.647Z,126.77
2019-05-18T03:54:48.452Z,115.63
2019-05-18T03:57:17.078Z,108.77
2019-05-18T03:59:46.779Z,110.17
2019-05-18T04:02:15.382Z,106.10
2019-05-18T04:04:45.471Z,97.07
2019-05-18T04:07:14.036Z,87.13
2019-05-18T04:09:42.694Z,89.43
2019-05-18T04:12:11.243Z,91.13
2019-05-18T04:14:39.902Z,89.30
2019-05-18T04:17:08.635Z,91.00
2019-05-18T04:19:46.338Z,90.57
2019-05-18T04:22:07.692Z,87.60
2019-05-18T04:24:36.367Z,91.63
2019-05-18T04:27:06.492Z,92.50
2019-05-18T04:29:35.120Z,85.63
2019-05-18T04:32:03.698Z,86.03
2019-05-18T04:34:32.320Z,85.20
2019-05-18T04:37:00.929Z,81.27
2019-05-18T04:39:29.448Z,72.30
2019-05-18T04:41:58.012Z,59.00
2019-05-18T04:44:26.581Z,55.00
2019-05-18T04:46:55.428Z,54.20
2019-05-18T04:49:24.048Z,49.07
2019-05-18T04:51:52.606Z,41.83
2019-05-18T04:54:21.207Z,44.87
2019-05-18T04:56:49.831Z,39.67
2019-05-18T04:59:18.525Z,40.60
2019-05-18T05:01:47.256Z,51.77
2019-05-18T05:04:15.867Z,39.80
2019-05-18T05:06:44.432Z,41.60
2019-05-18T05:09:13.103Z,38.63
2019-05-18T05:11:41.723Z,41.85
2019-05-18T05:14:10.351Z,37.03
2019-05-18T05:16:39.119Z,39.85
2019-05-18T05:19:08.798Z,41.53
2019-05-18T05:21:37.462Z,40.70
2019-05-18T05:24:06.025Z,33.92
2019-05-18T05:26:34.789Z,38.23
2019-05-18T05:29:03.534Z,30.65
2019-05-18T05:31:32.111Z,30.57
2019-05-18T05:34:00.740Z,30.65
2019-05-18T05:36:29.330Z,31.33
2019-05-18T05:38:58.022Z,30.92
2019-05-18T05:41:26.643Z,28.70
2019-05-18T05:43:55.316Z,28.83
2019-05-18T05:46:24.011Z,24.65
2019-05-18T05:48:52.635Z,26.50
2019-05-18T05:51:21.218Z,25.43
2019-05-18T05:53:49.779Z,25.50
2019-05-18T05:56:18.403Z,26.20
2019-05-18T05:58:46.990Z,24.12
2019-05-18T06:01:15.680Z,26.60
2019-05-18T06:03:44.414Z,26.20
2019-05-18T06:06:13.111Z,27.98
2019-05-18T06:08:41.735Z,22.13
2019-05-18T06:11:10.388Z,21.93
2019-05-18T06:13:39.014Z,23.87
2019-05-18T06:16:07.605Z,23.32
2019-05-18T06:18:36.205Z,26.85
2019-05-18T06:21:04.956Z,37.23
2019-05-18T06:23:33.583Z,27.55
2019-05-18T06:26:02.251Z,24.00
2019-05-18T06:28:30.814Z,23.05
2019-05-18T06:30:59.376Z,26.73
2019-05-18T06:33:28.034Z,24.23
2019-05-18T06:35:56.603Z,23.75
2019-05-18T06:38:25.223Z,26.65
2019-05-18T06:40:53.810Z,29.27
2019-05-18T06:43:22.443Z,28.50
2019-05-18T06:45:51.063Z,29.65
2019-05-18T06:48:19.867Z,32.98
2019-05-18T06:50:48.662Z,29.12
2019-05-18T06:53:17.283Z,32.28
2019-05-18T06:55:45.929Z,27.15
2019-05-18T06:58:15.380Z,27.93
2019-05-18T07:00:43.994Z,29.60
2019-05-18T07:03:12.703Z,28.23
2019-05-18T07:05:41.335Z,27.50
2019-05-18T07:08:09.985Z,25.85
2019-05-18T07:10:38.551Z,27.95
2019-05-18T07:13:07.178Z,23.70
2019-05-18T07:15:35.812Z,27.87
2019-05-18T07:18:04.562Z,25.70
2019-05-18T07:20:33.256Z,25.55
2019-05-18T07:23:01.825Z,23.85
2019-05-18T07:25:30.459Z,26.15
2019-05-18T07:27:59.092Z,22.00
2019-05-18T07:30:27.707Z,21.75
2019-05-18T07:32:57.373Z,20.55
2019-05-18T07:35:25.923Z,25.65
2019-05-18T07:37:54.516Z,22.00
2019-05-18T07:40:23.147Z,23.57
2019-05-18T07:42:51.672Z,24.10
2019-05-18T07:45:20.375Z,22.87
2019-05-18T07:47:50.336Z,27.87
2019-05-18T07:50:19.139Z,25.40
2019-05-18T07:52:47.701Z,17.55
2019-05-18T07:55:16.435Z,20.52
2019-05-18T07:57:45.043Z,21.40
2019-05-18T08:00:13.741Z,22.10
2019-05-18T08:02:42.394Z,20.35
2019-05-18T08:05:11.516Z,20.88
2019-05-18T08:07:40.211Z,21.77
2019-05-18T08:10:09.240Z,22.90
2019-05-18T08:12:37.935Z,22.60
2019-05-18T08:15:09.337Z,20.27
2019-05-18T08:17:37.989Z,21.17
2019-05-18T08:20:07.365Z,21.85
2019-05-18T08:22:36.047Z,21.20
2019-05-18T08:25:06.974Z,23.15
2019-05-18T08:27:35.599Z,20.17
2019-05-18T08:30:05.899Z,22.05
2019-05-18T08:32:34.560Z,20.23
2019-05-18T08:35:03.625Z,21.30
2019-05-18T08:37:32.275Z,23.20
2019-05-18T08:40:00.926Z,23.27
2019-05-18T08:42:29.554Z,20.65
2019-05-18T08:44:58.113Z,24.98
2019-05-18T08:47:26.698Z,25.48
2019-05-18T08:49:55.255Z,26.62
2019-05-18T08:52:23.802Z,23.83
2019-05-18T08:54:52.380Z,25.68
2019-05-18T08:57:20.948Z,20.68
2019-05-18T08:59:49.538Z,21.20
2019-05-18T09:02:18.095Z,22.07
2019-05-18T09:04:46.725Z,20.95
2019-05-18T09:07:15.414Z,23.83
2019-05-18T09:09:44.142Z,21.65
2019-05-18T09:12:12.695Z,18.25
2019-05-18T09:14:41.405Z,22.70
2019-05-18T09:17:10.066Z,17.75
2019-05-18T09:19:38.623Z,20.32
2019-05-18T09:22:07.319Z,20.12
2019-05-18T09:24:35.903Z,16.52
2019-05-18T09:27:04.596Z,19.37
2019-05-18T09:29:33.219Z,18.20
2019-05-18T09:32:01.968Z,16.60
2019-05-18T09:34:30.510Z,17.42
2019-05-18T09:36:59.065Z,17.62
2019-05-18T09:39:27.664Z,18.62
2019-05-18T09:41:56.291Z,16.65
2019-05-18T09:44:24.843Z,19.23
2019-05-18T09:46:53.506Z,15.78
2019-05-18T09:49:22.190Z,19.35
2019-05-18T09:51:50.884Z,21.95
2019-05-18T09:54:19.461Z,16.95
2019-05-18T09:56:48.083Z,18.15
2019-05-18T09:59:16.710Z,18.35
2019-05-18T10:01:45.295Z,15.63
2019-05-18T10:04:13.922Z,16.15
2019-05-18T10:06:42.479Z,14.55
2019-05-18T10:09:11.210Z,16.00
2019-05-18T10:11:39.772Z,15.15
2019-05-18T10:14:08.386Z,13.72
2019-05-18T10:16:36.996Z,14.53
2019-05-18T10:19:05.688Z,26.77
2019-05-18T10:21:34.360Z,22.60
2019-05-18T10:24:03.050Z,23.60
2019-05-18T10:26:31.609Z,25.12
2019-05-18T10:29:00.320Z,21.23
2019-05-18T10:31:28.966Z,21.70
2019-05-18T10:33:57.648Z,17.35
2019-05-18T10:36:26.407Z,16.05
2019-05-18T10:38:54.960Z,12.55
2019-05-18T10:41:23.610Z,13.25
2019-05-18T10:43:52.238Z,13.22
2019-05-18T10:46:20.795Z,15.50
2019-05-18T10:48:49.521Z,18.05
2019-05-18T10:51:18.156Z,26.42
2019-05-18T10:53:46.710Z,15.55
2019-05-18T10:56:15.283Z,16.15
2019-05-18T10:58:43.984Z,28.60
2019-05-18T11:01:12.594Z,12.70
2019-05-18T11:03:41.191Z,17.73
2019-05-18T11:06:09.875Z,15.83
2019-05-18T11:08:38.607Z,17.62
2019-05-18T11:11:07.319Z,18.20
2019-05-18T11:13:35.870Z,14.70
2019-05-18T11:16:04.655Z,15.88
2019-05-18T11:18:33.330Z,18.00
2019-05-18T11:21:01.978Z,18.60
2019-05-18T11:23:42.871Z,22.93
2019-05-18T11:26:00.806Z,15.78
2019-05-18T11:28:29.435Z,15.93
2019-05-18T11:30:57.994Z,14.53
2019-05-18T11:33:26.648Z,16.95
2019-05-18T11:35:55.273Z,18.65
2019-05-18T11:38:24.492Z,16.07
2019-05-18T11:40:53.150Z,15.98
2019-05-18T11:43:21.704Z,13.38
2019-05-18T11:45:50.395Z,18.75
2019-05-18T11:48:19.061Z,16.85
2019-05-18T11:50:47.756Z,14.83
2019-05-18T11:53:16.449Z,17.32
2019-05-18T11:55:45.180Z,12.60
2019-05-18T11:58:13.850Z,13.20
2019-05-18T12:00:42.553Z,14.35
2019-05-18T12:03:11.266Z,12.73
2019-05-18T12:05:39.895Z,16.20
2019-05-18T12:08:08.529Z,14.10
2019-05-18T12:10:37.202Z,15.53
2019-05-18T12:13:05.903Z,16.25
2019-05-18T12:15:34.590Z,29.60
2019-05-18T12:18:03.229Z,12.47
2019-05-18T12:20:31.914Z,11.70
2019-05-18T12:23:00.468Z,11.45
2019-05-18T12:25:29.140Z,12.05
2019-05-18T12:27:57.802Z,14.98
2019-05-18T12:30:26.554Z,11.38
2019-05-18T12:32:55.279Z,10.40
2019-05-18T12:35:24.984Z,13.03
2019-05-18T12:37:53.540Z,11.93
2019-05-18T12:40:22.763Z,11.85
2019-05-18T12:42:51.469Z,15.35
2019-05-18T12:45:20.556Z,11.68
2019-05-18T12:47:49.289Z,9.45
2019-05-18T12:50:20.043Z,11.30
2019-05-18T12:52:48.734Z,9.15
2019-05-18T12:55:18.367Z,10.60
2019-05-18T12:57:47.098Z,8.80
2019-05-18T13:00:17.584Z,8.48
2019-05-18T13:02:46.282Z,9.38
2019-05-18T13:05:15.880Z,8.45
2019-05-18T13:07:44.428Z,8.93
2019-05-18T13:10:13.647Z,8.50
2019-05-18T13:12:42.209Z,8.60
2019-05-18T13:15:12.351Z,7.28
2019-05-18T13:17:41.078Z,14.05
2019-05-18T13:20:11.834Z,11.25
2019-05-18T13:22:42.273Z,10.53
2019-05-18T13:25:11.498Z,9.98
2019-05-18T13:27:40.372Z,9.00
2019-05-18T13:30:11.064Z,16.45
2019-05-18T13:32:39.779Z,13.28
2019-05-18T13:35:08.958Z,7.92
2019-05-18T13:37:37.655Z,9.00
2019-05-18T13:40:07.811Z,7.67
2019-05-18T13:42:36.441Z,8.68
2019-05-18T13:45:07.794Z,10.50
2019-05-18T13:47:36.515Z,9.15
2019-05-18T13:50:05.926Z,8.58
2019-05-18T13:52:34.631Z,8.55
2019-05-18T13:55:05.162Z,11.22
2019-05-18T13:57:34.109Z,10.43
2019-05-18T14:00:02.856Z,11.95
2019-05-18T14:02:31.494Z,8.98
2019-05-18T14:05:00.065Z,12.40
2019-05-18T14:07:28.716Z,7.92
2019-05-18T14:09:57.392Z,9.15
2019-05-18T14:12:26.011Z,9.10
2019-05-18T14:14:54.635Z,10.20
2019-05-18T14:17:23.279Z,17.00
2019-05-18T14:19:51.984Z,9.23
2019-05-18T14:22:20.545Z,9.33
2019-05-18T14:24:49.105Z,7.17
2019-05-18T14:27:18.770Z,9.83
2019-05-18T14:29:47.327Z,9.25
2019-05-18T14:32:15.918Z,9.33
2019-05-18T14:34:44.483Z,8.50
2019-05-18T14:37:13.171Z,7.97
2019-05-18T14:39:41.884Z,6.83
2019-05-18T14:42:10.508Z,8.08
2019-05-18T14:44:39.144Z,12.23
2019-05-18T14:47:07.883Z,9.43
2019-05-18T14:49:36.494Z,9.18
2019-05-18T14:52:06.374Z,7.00
2019-05-18T14:54:34.920Z,7.45
2019-05-18T14:57:03.606Z,11.28
2019-05-18T14:59:32.303Z,6.42
2019-05-18T15:02:00.912Z,8.30
2019-05-18T15:04:29.460Z,6.55
2019-05-18T15:06:58.083Z,6.78
2019-05-18T15:09:26.825Z,9.88
2019-05-18T15:11:55.422Z,10.50
2019-05-18T15:14:24.005Z,11.65
2019-05-18T15:16:53.154Z,7.03
2019-05-18T15:19:21.736Z,6.15
2019-05-18T15:21:50.621Z,10.13
2019-05-18T15:24:19.299Z,7.22
2019-05-18T15:26:47.987Z,6.62
2019-05-18T15:29:16.602Z,5.78
2019-05-18T15:31:45.391Z,6.25
2019-05-18T15:34:14.007Z,5.87
2019-05-18T15:36:42.604Z,7.65
2019-05-18T15:39:11.300Z,6.30
2019-05-18T15:41:39.907Z,5.90
2019-05-18T15:44:08.560Z,9.75
2019-05-18T15:46:37.108Z,8.10
2019-05-18T15:49:05.809Z,6.85
2019-05-18T15:51:34.522Z,9.78
2019-05-18T15:54:03.202Z,7.65
2019-05-18T15:56:31.779Z,7.58
2019-05-18T15:59:00.470Z,9.75
2019-05-18T16:01:28.947Z,6.62
2019-05-18T16:03:57.663Z,7.62
2019-05-18T16:06:26.346Z,8.93
2019-05-18T16:08:55.035Z,7.10
2019-05-18T16:11:23.678Z,8.10
2019-05-18T16:13:52.381Z,10.05
2019-05-18T16:16:21.185Z,8.98
2019-05-18T16:18:49.721Z,11.95
2019-05-18T16:21:18.330Z,10.13
2019-05-18T16:23:46.976Z,7.47
2019-05-18T16:26:21.521Z,7.83
2019-05-18T16:28:45.960Z,9.20
2019-05-18T16:31:14.575Z,11.80
2019-05-18T16:33:43.278Z,15.45
2019-05-18T16:36:11.931Z,9.60
2019-05-18T16:38:40.542Z,9.33
2019-05-18T16:41:09.092Z,6.15
2019-05-18T16:43:37.676Z,13.65
2019-05-18T16:46:06.376Z,9.30
2019-05-18T16:48:34.922Z,5.97
2019-05-18T16:51:03.567Z,8.65
2019-05-18T16:53:32.192Z,9.00
2019-05-18T16:56:00.740Z,9.73
2019-05-18T16:58:29.416Z,18.17
2019-05-18T17:00:58.038Z,11.55
2019-05-18T17:03:26.580Z,39.40
2019-05-18T17:05:55.236Z,13.90
2019-05-18T17:08:23.795Z,9.45
2019-05-18T17:10:52.403Z,7.25
2019-05-18T17:13:21.115Z,7.95
2019-05-18T17:15:49.812Z,9.33
2019-05-18T17:18:18.434Z,8.40
2019-05-18T17:20:47.053Z,10.63
2019-05-18T17:23:15.707Z,9.15
2019-05-18T17:25:44.413Z,9.25
2019-05-18T17:28:13.098Z,14.70
2019-05-18T17:30:42.787Z,11.60
2019-05-18T17:33:11.509Z,24.90
2019-05-18T17:35:40.203Z,21.70
2019-05-18T17:38:08.866Z,19.00
2019-05-18T17:40:37.490Z,16.15
2019-05-18T17:43:06.178Z,13.00
2019-05-18T17:45:34.775Z,13.38
2019-05-18T17:48:03.458Z,10.70
2019-05-18T17:50:32.069Z,18.05
2019-05-18T17:53:00.652Z,11.73
2019-05-18T17:55:29.272Z,19.65
2019-05-18T17:57:58.075Z,14.20
2019-05-18T18:00:26.719Z,9.58
2019-05-18T18:02:55.278Z,11.20
2019-05-18T18:05:23.912Z,9.23
2019-05-18T18:07:55.446Z,9.90
2019-05-18T18:10:22.910Z,8.43
2019-05-18T18:12:51.395Z,16.32
2019-05-18T18:15:20.134Z,13.80
2019-05-18T18:17:50.469Z,11.63
2019-05-18T18:20:19.284Z,9.55
2019-05-18T18:22:47.859Z,12.20
2019-05-18T18:25:16.405Z,10.13
2019-05-18T18:27:45.104Z,13.50
2019-05-18T18:30:14.818Z,12.85
2019-05-18T18:32:43.434Z,17.17
2019-05-18T18:35:12.203Z,9.05
2019-05-18T18:37:40.863Z,17.60
2019-05-18T18:40:09.867Z,12.43
2019-05-18T18:42:38.892Z,20.48
2019-05-18T18:45:08.021Z,13.85
2019-05-18T18:47:36.708Z,14.47
2019-05-18T18:50:06.964Z,11.25
2019-05-18T18:52:35.610Z,15.98
2019-05-18T18:55:05.809Z,15.47
2019-05-18T18:57:41.284Z,23.67
2019-05-18T19:00:07.039Z,33.93
2019-05-18T19:02:35.728Z,29.95
2019-05-18T19:05:05.927Z,22.23
2019-05-18T19:07:34.571Z,18.10
2019-05-18T19:10:03.283Z,20.12
2019-05-18T19:12:31.812Z,24.37
2019-05-18T19:15:00.525Z,20.07
2019-05-18T19:17:29.219Z,28.87
2019-05-18T19:19:57.839Z,25.00
2019-05-18T19:22:26.507Z,24.37
2019-05-18T19:24:55.880Z,34.43
2019-05-18T19:27:24.580Z,32.17
2019-05-18T19:29:53.317Z,31.10
2019-05-18T19:32:21.859Z,22.03
2019-05-18T19:34:50.487Z,27.63
2019-05-18T19:37:19.056Z,23.33
2019-05-18T19:39:47.755Z,14.47
2019-05-18T19:42:16.374Z,13.30
2019-05-18T19:44:45.080Z,14.33
2019-05-18T19:47:13.772Z,17.37
2019-05-18T19:49:42.402Z,19.37
2019-05-18T19:52:10.991Z,16.77
2019-05-18T19:54:39.619Z,28.83
2019-05-18T19:57:08.307Z,16.10
2019-05-18T19:59:36.911Z,13.27
2019-05-18T20:02:05.615Z,14.37
2019-05-18T20:04:34.265Z,21.33
2019-05-18T20:07:02.823Z,18.50
2019-05-18T20:09:31.460Z,20.97
2019-05-18T20:12:00.015Z,17.73
2019-05-18T20:14:28.610Z,21.73
2019-05-18T20:16:57.321Z,29.23
2019-05-18T20:19:38.201Z,19.57
2019-05-18T20:21:56.231Z,18.00
2019-05-18T20:24:24.850Z,20.33
2019-05-18T20:26:53.411Z,19.17
2019-05-18T20:29:22.059Z,28.27
2019-05-18T20:31:50.623Z,20.47
2019-05-18T20:34:19.192Z,20.93
2019-05-18T20:36:47.934Z,20.87
2019-05-18T20:39:16.478Z,29.40
2019-05-18T20:41:45.109Z,30.00
2019-05-18T20:44:13.772Z,19.50
2019-05-18T20:46:42.401Z,22.77
2019-05-18T20:49:11.088Z,31.10
2019-05-18T20:51:39.674Z,24.70
2019-05-18T20:54:08.299Z,21.77
2019-05-18T20:56:36.927Z,22.13
2019-05-18T20:59:05.660Z,20.43
2019-05-18T21:01:34.289Z,20.27
2019-05-18T21:04:02.982Z,26.70
2019-05-18T21:06:31.656Z,24.00
2019-05-18T21:09:00.352Z,22.50
2019-05-18T21:11:28.980Z,20.83
2019-05-18T21:13:57.931Z,20.67
2019-05-18T21:16:26.487Z,23.43
2019-05-18T21:18:55.125Z,20.90
2019-05-18T21:21:25.989Z,20.80
2019-05-18T21:23:54.619Z,24.33
2019-05-18T21:26:23.438Z,22.40
2019-05-18T21:28:57.579Z,25.23
2019-05-18T21:31:22.291Z,21.10
2019-05-18T21:33:51.004Z,27.93
2019-05-18T21:36:19.578Z,28.93
2019-05-18T21:38:48.136Z,20.37
2019-05-18T21:41:16.763Z,26.20
2019-05-18T21:43:45.338Z,23.90
2019-05-18T21:46:14.248Z,26.87
2019-05-18T21:48:42.799Z,25.43
2019-05-18T21:51:11.662Z,28.43
2019-05-18T21:53:40.421Z,22.23
2019-05-18T21:56:09.035Z,30.77
2019-05-18T21:58:37.788Z,25.70
2019-05-18T22:01:06.994Z,35.27
2019-05-18T22:03:35.581Z,31.00
2019-05-18T22:06:04.314Z,29.90
2019-05-18T22:08:32.998Z,25.07
2019-05-18T22:11:01.616Z,24.57
2019-05-18T22:13:30.198Z,22.10
2019-05-18T22:15:58.823Z,21.93
2019-05-18T22:18:27.390Z,27.60
2019-05-18T22:20:55.964Z,27.40
2019-05-18T22:23:24.589Z,27.00
2019-05-18T22:25:56.686Z,22.83
2019-05-18T22:28:23.388Z,21.60
2019-05-18T22:30:51.957Z,24.20
2019-05-18T22:33:20.642Z,25.07
2019-05-18T22:35:49.250Z,25.77
2019-05-18T22:38:19.188Z,22.67
2019-05-18T22:40:48.198Z,25.33
2019-05-18T22:43:16.898Z,26.93
2019-05-18T22:45:46.993Z,27.67
2019-05-18T22:48:15.613Z,29.10
2019-05-18T22:50:44.283Z,33.50
2019-05-18T22:53:13.028Z,27.10
2019-05-18T22:55:41.714Z,32.50
2019-05-18T22:58:10.275Z,31.03
2019-05-18T23:00:38.908Z,31.57
2019-05-18T23:03:07.488Z,28.90
2019-05-18T23:05:36.687Z,29.97
2019-05-18T23:08:05.385Z,27.17
2019-05-18T23:10:34.143Z,30.53
2019-05-18T23:13:02.763Z,29.80
2019-05-18T23:15:31.455Z,30.03
2019-05-18T23:18:00.027Z,25.47
2019-05-18T23:20:28.656Z,25.73
2019-05-18T23:22:57.260Z,29.70
2019-05-18T23:25:25.810Z,26.43
2019-05-18T23:27:54.372Z,25.43
2019-05-18T23:30:23.101Z,28.97
2019-05-18T23:32:51.808Z,25.53
2019-05-18T23:35:20.384Z,24.23
2019-05-18T23:37:48.988Z,25.20
2019-05-18T23:40:18.778Z,26.87
2019-05-18T23:42:47.352Z,26.83
2019-05-18T23:45:16.090Z,26.93
2019-05-18T23:47:44.614Z,24.70
2019-05-18T23:50:13.498Z,30.53
2019-05-18T23:52:42.078Z,26.33
2019-05-18T23:55:10.972Z,27.93
2019-05-18T23:57:39.527Z,25.97
